Time;durP1;ratioP1;P1;durP2;ratioP2;P2;SDS_P1;SDS_P2;PMS_P1;PMS_P2;Temp;Humidity;BMP_temperature;BMP_pressure;BME280_temperature;BME280_humidity;BME280_pressure;Samples;Min_cycle;Max_cycle;Signal;HPM_P1;HPM_P2
2023/03/06 00:01:07;;;;;;;50.20;25.77;;;3.10;99.90;;;;;;5013780;28;20068;-80
2023/03/06 00:03:33;;;;;;;49.58;27.75;;;2.60;99.90;;;;;;5014808;28;20018;-80
2023/03/06 00:05:59;;;;;;;50.00;25.38;;;3.20;99.90;;;;;;5014588;28;20030;-81
2023/03/06 00:08:26;;;;;;;51.85;27.33;;;2.70;99.90;;;;;;5014654;28;20676;-81
2023/03/06 00:10:52;;;;;;;48.97;26.55;;;3.30;99.90;;;;;;5014581;28;20516;-81
2023/03/06 00:13:18;;;;;;;51.13;27.25;;;2.50;99.90;;;;;;5014253;28;20022;-81
2023/03/06 00:15:45;;;;;;;48.30;27.20;;;2.40;99.90;;;;;;5014307;28;20551;-81
2023/03/06 00:18:10;;;;;;;45.92;25.92;;;2.70;99.90;;;;;;5014500;28;20029;-80
2023/03/06 00:20:39;;;;;;;47.83;26.95;;;2.40;99.90;;;;;;5014563;28;20504;-81
2023/03/06 00:23:04;;;;;;;51.92;27.38;;;2.50;99.90;;;;;;5014678;28;20026;-81
2023/03/06 00:25:30;;;;;;;49.40;26.90;;;2.50;99.90;;;;;;5014335;28;20385;-81
2023/03/06 00:27:56;;;;;;;46.85;25.88;;;2.70;99.90;;;;;;5013883;28;20673;-80
2023/03/06 00:30:23;;;;;;;46.97;24.90;;;2.40;99.90;;;;;;5014113;28;20049;-81
2023/03/06 00:32:49;;;;;;;49.80;25.80;;;2.20;99.90;;;;;;4996776;28;20029;-80
2023/03/06 00:35:15;;;;;;;49.50;26.00;;;2.10;99.90;;;;;;5013787;28;20026;-81
2023/03/06 00:37:41;;;;;;;46.10;26.02;;;2.20;99.90;;;;;;5013902;28;20018;-81
2023/03/06 00:40:11;;;;;;;48.03;26.30;;;2.70;99.90;;;;;;5013980;28;20517;-81
2023/03/06 00:42:37;;;;;;;49.42;26.02;;;2.20;99.90;;;;;;5013603;28;20117;-81
2023/03/06 00:45:03;;;;;;;48.05;25.77;;;2.50;99.90;;;;;;5014011;28;20049;-80
2023/03/06 00:47:29;;;;;;;50.95;27.33;;;2.20;99.90;;;;;;5013929;28;20024;-81
2023/03/06 00:49:54;;;;;;;51.08;27.23;;;2.20;99.90;;;;;;5013633;28;20041;-81
2023/03/06 00:52:20;;;;;;;51.00;27.23;;;2.70;99.90;;;;;;5014448;28;20030;-81
2023/03/06 00:54:45;;;;;;;48.78;26.80;;;2.30;99.90;;;;;;5014033;28;20022;-82
2023/03/06 00:57:11;;;;;;;51.20;27.95;;;2.20;99.90;;;;;;5023172;28;20045;-81
2023/03/06 00:59:37;;;;;;;52.05;26.77;;;2.20;99.90;;;;;;5032981;28;20528;-81
2023/03/06 01:02:03;;;;;;;48.22;27.48;;;2.60;99.90;;;;;;5033017;28;20077;-81
2023/03/06 01:04:29;;;;;;;49.08;27.15;;;2.10;99.90;;;;;;5032641;28;20029;-81
2023/03/06 01:06:55;;;;;;;48.85;27.17;;;2.10;99.90;;;;;;5033074;28;20022;-81
2023/03/06 01:09:21;;;;;;;49.75;27.88;;;2.60;99.90;;;;;;5033159;28;20034;-81
2023/03/06 01:11:46;;;;;;;47.17;25.95;;;2.00;99.90;;;;;;5034161;28;20505;-81
2023/03/06 01:14:12;;;;;;;47.55;27.45;;;2.40;99.90;;;;;;5032832;28;20053;-81
2023/03/06 01:16:38;;;;;;;46.78;25.33;;;2.00;99.90;;;;;;5033143;28;20083;-80
2023/03/06 01:19:03;;;;;;;48.00;25.08;;;1.70;99.90;;;;;;5033048;28;20029;-81
2023/03/06 01:21:29;;;;;;;50.65;27.83;;;1.90;99.90;;;;;;5033163;28;20456;-81
2023/03/06 01:23:55;;;;;;;51.35;28.27;;;2.30;99.90;;;;;;5033107;28;20021;-81
2023/03/06 01:26:21;;;;;;;47.33;26.30;;;1.80;99.90;;;;;;5033164;28;20029;-80
2023/03/06 01:28:47;;;;;;;51.22;27.05;;;1.80;99.90;;;;;;5033199;28;20028;-81
2023/03/06 01:31:13;;;;;;;49.72;26.10;;;1.80;99.90;;;;;;5032723;28;20516;-81
2023/03/06 01:33:38;;;;;;;49.72;26.15;;;1.90;99.90;;;;;;5033053;28;20028;-81
2023/03/06 01:36:07;;;;;;;49.65;26.75;;;1.80;99.90;;;;;;5032345;28;20112;-81
2023/03/06 01:38:34;;;;;;;50.17;27.27;;;1.80;99.90;;;;;;5033023;28;20440;-81
2023/03/06 01:41:00;;;;;;;48.90;25.98;;;1.80;99.90;;;;;;5032283;28;20442;-81
2023/03/06 01:43:29;;;;;;;52.08;27.58;;;1.80;99.90;;;;;;5032803;28;20029;-81
2023/03/06 01:46:21;;;;;;;49.15;25.90;;;1.70;99.90;;;;;;5032376;28;20030;-81
2023/03/06 01:48:51;;;;;;;45.40;24.35;;;1.60;99.90;;;;;;5032524;28;20105;-81
2023/03/06 01:51:16;;;;;;;47.72;25.42;;;1.60;99.90;;;;;;5032353;28;20051;-81
2023/03/06 01:53:42;;;;;;;47.78;25.40;;;1.60;99.90;;;;;;5031879;28;20017;-81
2023/03/06 01:56:12;;;;;;;48.45;26.05;;;1.50;99.90;;;;;;5030552;28;20033;-81
2023/03/06 01:58:38;;;;;;;45.30;24.90;;;1.40;99.90;;;;;;5013155;28;20042;-81
2023/03/06 02:01:04;;;;;;;50.80;26.50;;;1.90;99.90;;;;;;5012784;28;20025;-81
2023/03/06 02:03:31;;;;;;;48.53;25.77;;;1.60;99.90;;;;;;4995801;28;20554;-81
2023/03/06 02:05:58;;;;;;;51.28;26.52;;;1.70;99.90;;;;;;5012246;28;20037;-80
2023/03/06 02:08:25;;;;;;;47.10;25.83;;;1.70;99.90;;;;;;5012879;28;20022;-80
2023/03/06 02:11:08;;;;;;;47.83;25.92;;;1.90;99.90;;;;;;5012317;28;20041;-80
2023/03/06 02:13:34;;;;;;;44.47;23.30;;;1.50;99.90;;;;;;5011560;28;20030;-81
2023/03/06 02:16:00;;;;;;;45.08;24.25;;;1.90;99.90;;;;;;5012764;28;20026;-80
2023/03/06 02:18:27;;;;;;;46.10;24.45;;;1.30;99.90;;;;;;5012380;28;20474;-80
2023/03/06 02:20:57;;;;;;;44.63;23.85;;;1.20;99.90;;;;;;5012453;28;20054;-80
2023/03/06 02:23:44;;;;;;;45.50;25.17;;;1.20;99.90;;;;;;5012073;28;20101;-81
2023/03/06 02:26:12;;;;;;;44.63;22.42;;;1.30;99.90;;;;;;5012123;28;20029;-80
2023/03/06 02:28:38;;;;;;;46.42;25.15;;;1.30;99.90;;;;;;5012326;28;20061;-81
2023/03/06 02:31:05;;;;;;;50.08;26.77;;;1.20;99.90;;;;;;5013287;28;20034;-81
2023/03/06 02:33:31;;;;;;;46.80;24.30;;;1.60;99.90;;;;;;5012230;28;20460;-81
2023/03/06 02:35:59;;;;;;;48.85;25.55;;;1.10;99.90;;;;;;5012289;28;20101;-81
2023/03/06 02:38:30;;;;;;;52.33;26.23;;;1.50;99.90;;;;;;5012149;28;20136;-80
2023/03/06 02:40:56;;;;;;;48.03;25.88;;;1.30;99.90;;;;;;5012444;28;20572;-81
2023/03/06 02:43:27;;;;;;;46.30;24.77;;;1.90;99.90;;;;;;5012240;28;20054;-81
2023/03/06 02:45:53;;;;;;;46.20;24.75;;;1.50;99.90;;;;;;5012808;28;20484;-81
2023/03/06 02:48:19;;;;;;;45.83;24.88;;;1.50;99.90;;;;;;5012129;28;20060;-81
2023/03/06 02:50:46;;;;;;;47.22;23.58;;;1.40;99.90;;;;;;5012468;28;20038;-80
2023/03/06 02:53:15;;;;;;;46.47;22.73;;;1.20;99.90;;;;;;5011930;28;20029;-81
2023/03/06 02:55:41;;;;;;;48.08;24.88;;;1.10;99.90;;;;;;5011638;28;20036;-83
2023/03/06 02:58:07;;;;;;;42.85;23.83;;;1.10;99.90;;;;;;5029760;28;20057;-82
2023/03/06 03:00:33;;;;;;;41.35;23.48;;;1.10;99.90;;;;;;5032150;28;20432;-82
2023/03/06 03:02:59;;;;;;;47.88;24.52;;;1.30;99.90;;;;;;5031083;28;20026;-80
2023/03/06 03:05:24;;;;;;;46.70;24.95;;;1.10;99.90;;;;;;5031251;28;20049;-80
2023/03/06 03:07:50;;;;;;;46.50;23.80;;;1.30;99.90;;;;;;5030865;28;20049;-81
2023/03/06 03:10:16;;;;;;;43.67;22.80;;;0.80;99.90;;;;;;5031667;28;20033;-80
2023/03/06 03:12:41;;;;;;;46.78;24.00;;;1.10;99.90;;;;;;5032293;28;20025;-80
2023/03/06 03:15:08;;;;;;;44.22;23.58;;;0.70;99.90;;;;;;5031341;28;20018;-83
2023/03/06 03:17:38;;;;;;;44.67;22.58;;;0.70;99.90;;;;;;5032353;28;20029;-82
2023/03/06 03:20:06;;;;;;;42.50;23.17;;;0.80;99.90;;;;;;5031809;28;20041;-83
2023/03/06 03:22:32;;;;;;;47.83;24.45;;;0.80;99.90;;;;;;5030946;28;20026;-82
2023/03/06 03:24:57;;;;;;;42.22;22.55;;;1.40;99.90;;;;;;5033606;28;20033;-82
2023/03/06 03:27:23;;;;;;;44.55;23.52;;;0.80;99.90;;;;;;5035041;28;20049;-80
2023/03/06 03:29:49;;;;;;;48.58;24.77;;;0.70;99.90;;;;;;5034905;28;20124;-82
2023/03/06 03:32:14;;;;;;;49.95;24.60;;;0.70;99.90;;;;;;5034997;28;20022;-83
2023/03/06 03:34:40;;;;;;;46.88;23.50;;;0.90;99.90;;;;;;5034928;28;20029;-81
2023/03/06 03:37:06;;;;;;;50.78;24.85;;;0.70;99.90;;;;;;5034480;28;20557;-80
2023/03/06 03:39:31;;;;;;;45.85;24.42;;;0.60;99.90;;;;;;5034743;28;20525;-81
2023/03/06 03:41:57;;;;;;;45.95;24.10;;;0.60;99.90;;;;;;5034844;28;20060;-81
2023/03/06 03:44:23;;;;;;;43.70;22.73;;;0.70;99.90;;;;;;5034754;28;20047;-81
2023/03/06 03:46:48;;;;;;;46.17;23.90;;;0.70;99.90;;;;;;5035202;28;20029;-81
2023/03/06 03:49:14;;;;;;;48.03;24.25;;;0.60;99.90;;;;;;5034245;28;20029;-83
2023/03/06 03:51:40;;;;;;;43.40;22.25;;;1.20;99.90;;;;;;5034451;28;20038;-80
2023/03/06 03:54:06;;;;;;;51.88;25.23;;;0.80;99.90;;;;;;5034548;28;20047;-81
2023/03/06 03:56:32;;;;;;;47.40;24.60;;;0.90;99.90;;;;;;5029191;28;20371;-80
2023/03/06 03:58:58;;;;;;;45.15;24.02;;;0.80;99.90;;;;;;5014957;28;20065;-81
2023/03/06 04:01:24;;;;;;;44.25;23.70;;;0.60;99.90;;;;;;5014722;28;20030;-81
2023/03/06 04:03:50;;;;;;;47.15;23.52;;;0.70;99.90;;;;;;5014226;28;20033;-81
2023/03/06 04:06:16;;;;;;;44.33;23.40;;;0.90;99.90;;;;;;5014621;28;20445;-80
2023/03/06 04:08:42;;;;;;;53.80;24.42;;;0.80;99.90;;;;;;5015398;28;20024;-81
2023/03/06 04:11:07;;;;;;;47.55;24.92;;;1.10;99.90;;;;;;5015564;28;20380;-81
2023/03/06 04:13:33;;;;;;;44.33;23.10;;;0.80;99.90;;;;;;5014523;28;20085;-81
2023/03/06 04:15:59;;;;;;;46.35;24.00;;;1.30;99.90;;;;;;5014385;28;20217;-81
2023/03/06 04:18:25;;;;;;;49.10;24.60;;;0.80;99.90;;;;;;5014183;28;20026;-81
2023/03/06 04:20:51;;;;;;;48.53;25.40;;;0.90;99.90;;;;;;5014731;28;20455;-81
2023/03/06 04:23:18;;;;;;;50.30;24.55;;;0.80;99.90;;;;;;5014194;28;20084;-81
2023/03/06 04:25:45;;;;;;;47.47;24.27;;;0.70;99.90;;;;;;5014102;28;20025;-81
2023/03/06 04:28:11;;;;;;;46.53;24.25;;;0.70;99.90;;;;;;5014503;28;20033;-83
2023/03/06 04:30:37;;;;;;;46.95;24.48;;;0.70;99.90;;;;;;5013883;28;20131;-80
2023/03/06 04:33:03;;;;;;;46.47;24.27;;;1.20;99.90;;;;;;5014016;28;20489;-80
2023/03/06 04:35:29;;;;;;;49.63;23.60;;;1.20;99.90;;;;;;5013423;28;20080;-81
2023/03/06 04:37:55;;;;;;;48.00;23.75;;;0.50;99.90;;;;;;5013799;28;20108;-81
2023/03/06 04:40:27;;;;;;;46.53;23.80;;;0.50;99.90;;;;;;5013968;28;20071;-82
2023/03/06 04:42:54;;;;;;;43.67;22.75;;;0.60;99.90;;;;;;5013902;28;20026;-82
2023/03/06 04:45:20;;;;;;;46.85;23.30;;;0.60;99.90;;;;;;5014178;28;20022;-82
2023/03/06 04:47:46;;;;;;;42.72;23.63;;;0.40;99.90;;;;;;5013415;28;20033;-82
2023/03/06 04:50:12;;;;;;;45.10;23.20;;;0.40;99.90;;;;;;5013611;28;20413;-81
2023/03/06 04:52:39;;;;;;;43.65;23.83;;;0.60;99.90;;;;;;5013874;28;20018;-81
2023/03/06 04:55:07;;;;;;;43.72;22.45;;;0.60;99.90;;;;;;5013823;28;20030;-82
2023/03/06 04:57:37;;;;;;;46.22;23.60;;;0.40;99.90;;;;;;5027140;28;20041;-81
2023/03/06 05:00:07;;;;;;;48.70;23.45;;;0.40;99.90;;;;;;5033417;28;20044;-81
2023/03/06 05:02:32;;;;;;;44.75;24.10;;;0.50;99.90;;;;;;5032827;28;20017;-81
2023/03/06 05:04:58;;;;;;;48.28;23.73;;;0.60;99.90;;;;;;5033145;28;20409;-81
2023/03/06 05:07:24;;;;;;;51.42;25.88;;;0.50;99.90;;;;;;5033125;28;20460;-82
2023/03/06 05:09:49;;;;;;;44.35;24.85;;;0.30;99.90;;;;;;5033364;28;20046;-81
2023/03/06 05:12:15;;;;;;;51.72;25.02;;;0.90;99.90;;;;;;5015832;28;20084;-81
2023/03/06 05:14:40;;;;;;;48.10;25.77;;;0.20;99.90;;;;;;5012365;28;20669;-81
2023/03/06 05:17:06;;;;;;;46.88;24.05;;;0.30;99.90;;;;;;5012264;28;20034;-81
2023/03/06 05:19:32;;;;;;;54.90;26.23;;;0.40;99.90;;;;;;5013534;28;20041;-82
2023/03/06 05:21:57;;;;;;;45.95;25.48;;;1.00;99.90;;;;;;5013115;28;20029;-81
2023/03/06 05:24:23;;;;;;;46.25;25.05;;;0.30;99.90;;;;;;5013099;28;20072;-83
2023/03/06 05:26:49;;;;;;;49.10;24.92;;;0.40;99.90;;;;;;5019911;28;20421;-82
2023/03/06 05:29:14;;;;;;;49.38;25.20;;;0.70;99.90;;;;;;5032628;28;20159;-81
2023/03/06 05:31:40;;;;;;;47.13;24.73;;;1.00;99.90;;;;;;5033147;28;20037;-82
2023/03/06 05:34:05;;;;;;;50.55;25.55;;;0.60;99.90;;;;;;5033322;28;20021;-90
2023/03/06 05:36:31;;;;;;;45.85;23.98;;;1.10;99.90;;;;;;5033321;28;20412;-87
2023/03/06 05:38:57;;;;;;;44.63;23.35;;;1.60;99.90;;;;;;5032133;28;20100;-89
2023/03/06 05:41:23;;;;;;;48.20;24.35;;;2.10;99.90;;;;;;5032863;28;20458;-90
2023/03/06 05:43:48;;;;;;;47.83;25.02;;;2.50;99.90;;;;;;5032575;28;20124;-87
2023/03/06 05:46:14;;;;;;;45.45;23.73;;;2.20;99.90;;;;;;5032115;28;20029;-87
2023/03/06 05:48:39;;;;;;;44.30;22.80;;;2.30;99.90;;;;;;5032169;28;20017;-87
2023/03/06 05:51:05;;;;;;;41.63;22.95;;;1.80;99.90;;;;;;5032619;28;20091;-87
2023/03/06 05:53:31;;;;;;;41.50;21.65;;;2.20;99.90;;;;;;5032343;28;20029;-87
2023/03/06 05:56:00;;;;;;;42.80;22.58;;;2.40;99.90;;;;;;5023351;28;20482;-87
2023/03/06 05:58:27;;;;;;;40.40;21.88;;;2.50;99.90;;;;;;5032285;28;20077;-86
2023/03/06 06:00:53;;;;;;;45.63;22.90;;;2.50;99.90;;;;;;5031953;28;20034;-87
2023/03/06 06:03:19;;;;;;;44.92;22.95;;;2.40;99.90;;;;;;5030477;28;20034;-91
2023/03/06 06:05:45;;;;;;;46.63;23.42;;;2.40;99.90;;;;;;5000721;28;20021;-87
2023/03/06 06:08:11;;;;;;;42.55;22.65;;;2.30;99.90;;;;;;4994617;28;20029;-87
2023/03/06 06:10:38;;;;;;;45.15;23.13;;;2.20;99.90;;;;;;5012505;28;20041;-86
2023/03/06 06:13:03;;;;;;;43.78;22.90;;;2.20;99.90;;;;;;4994879;28;20087;-86
2023/03/06 06:15:29;;;;;;;48.58;24.63;;;2.10;99.90;;;;;;5012442;28;20125;-86
2023/03/06 06:17:55;;;;;;;45.55;24.50;;;2.30;99.90;;;;;;4995534;28;20429;-86
2023/03/06 06:20:21;;;;;;;49.78;24.92;;;2.40;99.90;;;;;;5012314;28;20485;-87
2023/03/06 06:22:47;;;;;;;51.15;24.38;;;2.50;99.90;;;;;;5012107;28;20048;-86
2023/03/06 06:25:12;;;;;;;49.85;24.73;;;2.50;99.90;;;;;;5012700;28;20172;-86
2023/03/06 06:27:38;;;;;;;43.72;22.77;;;2.30;99.90;;;;;;5011796;28;20022;-87
2023/03/06 06:30:06;;;;;;;47.35;23.42;;;1.80;99.90;;;;;;5012497;28;20044;-88
2023/03/06 06:32:31;;;;;;;44.03;22.48;;;1.70;99.90;;;;;;5011816;28;20443;-87
2023/03/06 06:34:57;;;;;;;42.13;22.30;;;2.20;99.90;;;;;;5012325;28;20026;-87
2023/03/06 06:37:23;;;;;;;46.53;22.80;;;2.00;99.90;;;;;;5012113;28;20121;-87
2023/03/06 06:39:49;;;;;;;47.88;24.58;;;2.30;99.90;;;;;;5011984;28;20038;-87
2023/03/06 06:42:15;;;;;;;43.42;23.85;;;2.30;99.90;;;;;;5012227;28;20030;-87
2023/03/06 06:44:41;;;;;;;45.22;24.55;;;2.50;99.90;;;;;;5011679;28;20047;-87
2023/03/06 06:47:07;;;;;;;43.63;23.67;;;2.00;99.90;;;;;;4994700;28;20026;-87
2023/03/06 06:49:33;;;;;;;43.92;23.73;;;2.60;99.90;;;;;;5011981;28;20379;-87
2023/03/06 06:51:59;;;;;;;44.33;23.30;;;2.40;99.90;;;;;;4994423;28;20538;-87
2023/03/06 06:54:25;;;;;;;42.00;23.13;;;1.90;99.90;;;;;;4994381;28;20121;-86
2023/03/06 06:56:51;;;;;;;44.13;23.88;;;1.90;99.90;;;;;;5010262;28;20061;-87
2023/03/06 06:59:17;;;;;;;48.38;24.77;;;2.30;99.90;;;;;;5014902;28;20060;-87
2023/03/06 07:01:42;;;;;;;44.25;25.10;;;2.00;99.90;;;;;;5035157;28;20178;-86
2023/03/06 07:04:13;;;;;;;50.35;24.15;;;2.20;99.90;;;;;;5035420;28;20037;-86
2023/03/06 07:06:38;;;;;;;42.58;23.60;;;1.90;99.90;;;;;;5018168;28;20075;-87
2023/03/06 07:09:04;;;;;;;41.90;24.10;;;2.50;99.90;;;;;;5035311;28;20029;-86
2023/03/06 07:11:30;;;;;;;44.63;23.88;;;2.00;99.90;;;;;;5035325;28;20193;-87
2023/03/06 07:13:56;;;;;;;44.40;23.08;;;2.00;99.90;;;;;;5034939;28;20026;-87
2023/03/06 07:16:22;;;;;;;43.00;24.70;;;2.20;99.90;;;;;;5035321;28;20505;-87
2023/03/06 07:18:48;;;;;;;42.72;23.35;;;2.70;99.90;;;;;;5017546;28;20025;-87
2023/03/06 07:21:14;;;;;;;46.85;24.08;;;2.80;99.90;;;;;;5035304;28;20036;-87
2023/03/06 07:23:39;;;;;;;47.00;25.02;;;2.50;99.90;;;;;;5035099;28;20123;-86
2023/03/06 07:26:05;;;;;;;44.63;24.13;;;3.00;99.90;;;;;;5035177;28;20029;-87
2023/03/06 07:28:31;;;;;;;45.10;25.30;;;2.80;99.90;;;;;;5017437;28;20107;-87
2023/03/06 07:30:57;;;;;;;49.13;25.52;;;3.20;99.90;;;;;;5034771;28;20549;-87
2023/03/06 07:33:22;;;;;;;46.97;24.27;;;2.90;99.90;;;;;;5035057;28;20100;-87
2023/03/06 07:35:48;;;;;;;46.30;24.13;;;3.00;99.90;;;;;;5034768;28;20117;-87
2023/03/06 07:38:14;;;;;;;41.70;23.35;;;2.80;99.90;;;;;;5017141;28;20120;-87
2023/03/06 07:40:39;;;;;;;42.22;24.40;;;2.90;99.90;;;;;;5035172;28;20033;-86
2023/03/06 07:43:05;;;;;;;44.45;24.63;;;3.00;99.90;;;;;;5034056;28;20026;-87
2023/03/06 07:45:32;;;;;;;45.33;25.20;;;3.40;99.90;;;;;;5034826;28;20029;-87
2023/03/06 07:47:57;;;;;;;45.63;25.77;;;3.80;99.90;;;;;;5017851;28;20109;-87
2023/03/06 07:50:23;;;;;;;48.42;25.17;;;3.20;99.90;;;;;;5034452;28;20037;-87
2023/03/06 07:52:49;;;;;;;44.47;25.73;;;3.20;99.90;;;;;;5034557;28;20053;-88
2023/03/06 07:55:15;;;;;;;42.08;23.90;;;3.30;99.90;;;;;;5034710;28;20422;-87
2023/03/06 07:57:41;;;;;;;44.15;24.83;;;3.30;99.90;;;;;;5019202;28;20080;-87
2023/03/06 08:00:11;;;;;;;45.72;24.27;;;3.40;99.90;;;;;;5015083;28;20045;-86
2023/03/06 08:02:37;;;;;;;45.35;25.83;;;3.50;99.90;;;;;;5014645;28;20034;-87
2023/03/06 08:05:03;;;;;;;53.80;25.75;;;3.90;99.90;;;;;;4996960;28;20030;-87
2023/03/06 08:07:29;;;;;;;45.08;23.90;;;3.50;99.90;;;;;;4996956;28;20505;-87
2023/03/06 08:09:55;;;;;;;50.67;25.33;;;4.00;99.90;;;;;;4997112;28;20030;-87
2023/03/06 08:12:21;;;;;;;48.47;25.20;;;4.10;99.90;;;;;;5013215;28;20064;-86
2023/03/06 08:14:46;;;;;;;45.88;26.05;;;3.70;99.90;;;;;;5014324;28;20037;-87
2023/03/06 08:17:12;;;;;;;44.75;25.30;;;4.20;99.90;;;;;;5014464;28;20033;-87
2023/03/06 08:19:37;;;;;;;48.13;25.10;;;4.40;99.90;;;;;;5014330;28;20058;-88
2023/03/06 08:22:05;;;;;;;43.72;24.30;;;4.20;99.90;;;;;;5014735;28;20088;-87
2023/03/06 08:24:31;;;;;;;46.63;25.52;;;4.00;99.90;;;;;;4996822;28;20556;-87
2023/03/06 08:26:57;;;;;;;45.38;25.83;;;4.60;99.90;;;;;;5014236;28;20152;-87
2023/03/06 08:29:23;;;;;;;45.13;25.95;;;4.40;99.90;;;;;;5014052;28;20105;-87
2023/03/06 08:31:48;;;;;;;48.00;26.15;;;4.50;99.90;;;;;;5014293;28;20034;-87
2023/03/06 08:34:18;;;;;;;45.30;26.05;;;4.80;99.90;;;;;;4996580;28;20482;-87
2023/03/06 08:36:44;;;;;;;43.90;25.92;;;5.00;99.90;;;;;;5014027;28;20037;-87
2023/03/06 08:39:10;;;;;;;40.97;24.25;;;5.10;99.90;;;;;;5014999;28;20357;-87
2023/03/06 08:41:36;;;;;;;40.15;23.98;;;5.20;99.90;;;;;;5013250;28;20022;-88
2023/03/06 08:44:03;;;;;;;38.97;25.05;;;5.50;99.90;;;;;;5014224;28;20088;-87
2023/03/06 08:46:29;;;;;;;38.80;24.40;;;5.90;99.90;;;;;;5013917;28;20033;-87
2023/03/06 08:48:55;;;;;;;38.75;25.20;;;7.40;99.90;;;;;;5014037;28;20049;-87
2023/03/06 08:51:22;;;;;;;37.83;25.15;;;10.10;99.90;;;;;;5014147;28;20108;-87
2023/03/06 08:53:48;;;;;;;41.63;26.13;;;11.70;99.90;;;;;;5013683;28;20022;-88
2023/03/06 08:56:19;;;;;;;38.38;23.75;;;12.80;99.90;;;;;;5016079;28;20510;-87
2023/03/06 08:58:45;;;;;;;34.00;24.13;;;13.60;99.90;;;;;;5033213;28;20095;-88
2023/03/06 09:01:20;;;;;;;29.27;21.33;;;13.70;99.90;;;;;;5033778;28;20018;-88
2023/03/06 09:03:46;;;;;;;32.47;22.08;;;14.00;99.90;;;;;;5033025;28;20060;-89
2023/03/06 09:06:12;;;;;;;34.72;23.08;;;14.10;99.90;;;;;;5015730;28;20076;-88
2023/03/06 09:08:41;;;;;;;34.20;22.67;;;14.20;99.90;;;;;;5032940;28;20117;-88
2023/03/06 09:11:12;;;;;;;37.10;24.35;;;14.30;99.90;;;;;;5033169;28;20046;-88
2023/03/06 09:13:37;;;;;;;34.03;24.90;;;14.80;99.90;;;;;;5033062;28;20029;-88
2023/03/06 09:16:03;;;;;;;36.92;27.08;;;15.50;99.90;;;;;;5033122;28;20416;-86
2023/03/06 09:18:29;;;;;;;34.50;27.35;;;15.50;99.90;;;;;;5011302;28;20667;-88
2023/03/06 09:20:55;;;;;;;35.85;25.67;;;15.60;99.90;;;;;;5026240;28;20208;-86
2023/03/06 09:23:21;;;;;;;32.35;23.40;;;16.40;99.90;;;;;;5032063;28;20095;-85
2023/03/06 09:25:54;;;;;;;28.35;22.90;;;16.10;99.90;;;;;;5032882;28;20025;-86
2023/03/06 09:28:20;;;;;;;34.25;27.33;;;16.20;99.90;;;;;;5013328;28;20030;-86
2023/03/06 09:30:45;;;;;;;24.63;21.90;;;17.00;99.90;;;;;;4995074;28;20041;-86
2023/03/06 09:33:11;;;;;;;23.38;19.25;;;17.00;99.90;;;;;;5012943;28;20048;-86
2023/03/06 09:35:52;;;;;;;22.27;18.95;;;17.50;99.90;;;;;;4994060;28;20022;-86
2023/03/06 09:38:19;;;;;;;26.23;20.25;;;17.20;99.90;;;;;;5012597;28;20049;-87
2023/03/06 09:40:56;;;;;;;28.08;19.85;;;16.90;99.90;;;;;;5013095;28;20022;-86
2023/03/06 09:43:34;;;;;;;24.65;20.45;;;17.30;99.90;;;;;;5012676;28;20060;-86
2023/03/06 09:46:04;;;;;;;26.38;20.58;;;17.40;99.90;;;;;;5012844;28;20029;-86
2023/03/06 09:49:09;;;;;;;22.80;19.77;;;17.50;99.90;;;;;;5012712;28;20033;-86
2023/03/06 09:51:40;;;;;;;26.45;20.35;;;17.50;99.90;;;;;;5008245;28;20129;-86
2023/03/06 09:54:12;;;;;;;27.20;22.48;;;18.00;99.90;;;;;;5012391;28;20080;-86
2023/03/06 09:56:40;;;;;;;24.20;20.88;;;17.90;99.90;;;;;;5018531;28;20030;-87
2023/03/06 09:59:13;;;;;;;24.92;18.95;;;19.00;99.90;;;;;;5014897;28;20045;-86
2023/03/06 10:01:43;;;;;;;25.08;19.35;;;18.90;99.90;;;;;;5032239;28;20032;-87
2023/03/06 10:04:27;;;;;;;26.02;18.52;;;18.40;99.90;;;;;;5032071;28;20029;-87
2023/03/06 10:06:58;;;;;;;21.65;18.75;;;18.90;99.90;;;;;;5031719;28;20092;-87
2023/03/06 10:09:50;;;;;;;23.20;19.17;;;18.80;99.90;;;;;;5031989;28;20156;-86
2023/03/06 10:12:37;;;;;;;21.48;18.23;;;18.60;99.90;;;;;;5029405;28;20049;-87
2023/03/06 10:15:25;;;;;;;21.92;19.00;;;18.80;99.90;;;;;;5032032;28;20426;-86
2023/03/06 10:17:51;;;;;;;20.25;18.15;;;18.70;99.90;;;;;;5014340;28;20047;-86
2023/03/06 10:20:21;;;;;;;19.83;17.52;;;18.60;99.90;;;;;;5014338;28;20463;-86
2023/03/06 10:22:56;;;;;;;20.80;17.30;;;18.70;99.90;;;;;;5031949;28;20040;-87
2023/03/06 10:25:51;;;;;;;20.92;17.40;;;19.20;99.90;;;;;;5032651;28;20080;-87
2023/03/06 10:28:32;;;;;;;19.55;17.42;;;19.70;99.90;;;;;;5031246;28;20045;-87
2023/03/06 10:31:13;;;;;;;19.88;17.77;;;19.30;99.90;;;;;;5022428;28;20497;-87
2023/03/06 10:33:39;;;;;;;22.75;19.02;;;20.20;99.90;;;;;;4994481;28;20032;-87
2023/03/06 10:36:05;;;;;;;21.33;19.08;;;21.30;99.90;;;;;;5016530;28;20026;-87
2023/03/06 10:38:30;;;;;;;20.20;18.02;;;20.40;99.90;;;;;;5016284;28;20043;-87
2023/03/06 10:41:11;;;;;;;20.33;16.52;;;21.50;99.90;;;;;;4999393;28;20405;-87
2023/03/06 10:44:05;;;;;;;20.08;17.85;;;22.20;99.90;;;;;;5016142;28;20058;-87
2023/03/06 10:46:41;;;;;;;20.02;17.92;;;21.90;99.90;;;;;;5015889;28;20490;-87
2023/03/06 10:49:31;;;;;;;19.65;17.23;;;22.50;99.90;;;;;;5016127;28;20052;-87
2023/03/06 10:52:17;;;;;;;20.48;18.30;;;23.10;99.90;;;;;;5015688;28;20105;-87
2023/03/06 10:54:43;;;;;;;24.10;19.70;;;22.20;99.90;;;;;;4999072;28;20045;-87
2023/03/06 10:57:30;;;;;;;19.55;17.45;;;23.70;99.90;;;;;;5015877;28;20405;-87
2023/03/06 11:00:22;;;;;;;20.27;16.77;;;23.20;99.90;;;;;;4998378;28;20026;-87
2023/03/06 11:03:16;;;;;;;18.38;15.90;;;23.10;99.90;;;;;;5015707;28;20036;-87
2023/03/06 11:06:09;;;;;;;17.50;15.25;;;22.90;99.90;;;;;;5015373;28;20033;-87
2023/03/06 11:08:35;;;;;;;16.90;15.10;;;23.80;99.90;;;;;;5015603;28;20300;-88
2023/03/06 11:11:09;;;;;;;17.75;15.88;;;24.90;99.90;;;;;;5015535;28;20383;-87
2023/03/06 11:13:37;;;;;;;15.65;14.00;;;23.50;99.90;;;;;;5015980;28;20165;-87
2023/03/06 11:16:05;;;;;;;17.45;14.35;;;22.70;99.90;;;;;;5015810;28;20116;-88
2023/03/06 11:18:41;;;;;;;15.02;13.38;;;23.40;99.90;;;;;;5015490;28;20080;-88
2023/03/06 11:21:28;;;;;;;17.55;15.75;;;23.10;99.90;;;;;;5015142;28;20223;-88
2023/03/06 11:24:00;;;;;;;20.30;16.55;;;23.50;99.90;;;;;;4997926;28;20041;-88
2023/03/06 11:26:37;;;;;;;18.88;15.70;;;23.80;99.90;;;;;;5015399;28;20642;-88
2023/03/06 11:29:11;;;;;;;17.25;15.48;;;24.50;99.90;;;;;;4998084;28;20156;-88
2023/03/06 11:31:51;;;;;;;18.70;13.73;;;24.50;99.90;;;;;;5028875;28;20041;-88
2023/03/06 11:34:46;;;;;;;14.88;13.30;;;24.20;99.90;;;;;;5017264;28;20090;-88
2023/03/06 11:37:37;;;;;;;15.98;14.27;;;24.40;99.90;;;;;;5034133;28;20040;-88
2023/03/06 11:40:09;;;;;;;16.58;14.70;;;24.20;99.90;;;;;;5017313;28;20061;-88
2023/03/06 11:42:38;;;;;;;17.33;15.55;;;24.70;99.90;;;;;;5035110;28;20029;-88
2023/03/06 11:45:28;;;;;;;17.75;15.30;;;24.50;99.90;;;;;;5034402;28;20113;-88
2023/03/06 11:48:16;;;;;;;16.77;14.90;;;24.40;99.90;;;;;;5033856;28;20504;-88
2023/03/06 11:50:51;;;;;;;18.42;16.30;;;23.90;99.90;;;;;;5034520;28;20124;-88
2023/03/06 11:53:38;;;;;;;18.48;16.10;;;22.90;99.90;;;;;;5017089;28;20432;-88
2023/03/06 11:56:19;;;;;;;19.10;15.60;;;24.30;99.90;;;;;;5034833;28;20052;-87
2023/03/06 11:59:14;;;;;;;17.50;15.68;;;24.80;99.90;;;;;;5034563;28;20053;-88
2023/03/06 12:01:50;;;;;;;22.10;16.80;;;24.90;99.90;;;;;;5034475;28;20046;-88
2023/03/06 12:04:34;;;;;;;18.77;15.73;;;23.20;99.90;;;;;;5016692;28;20035;-88
2023/03/06 12:07:20;;;;;;;17.50;15.63;;;23.70;99.90;;;;;;5034365;28;20025;-88
2023/03/06 12:10:05;;;;;;;17.02;15.13;;;23.00;99.90;;;;;;5034706;28;20053;-88
2023/03/06 12:12:43;;;;;;;19.40;15.75;;;23.50;99.90;;;;;;5034349;28;20040;-88
2023/03/06 12:15:14;;;;;;;16.55;14.77;;;24.10;99.90;;;;;;5034525;28;20551;-88
2023/03/06 12:18:11;;;;;;;15.98;14.13;;;23.30;99.90;;;;;;5016777;28;20068;-88
2023/03/06 12:20:49;;;;;;;16.88;14.80;;;23.30;99.90;;;;;;5034297;28;20080;-88
2023/03/06 12:23:42;;;;;;;15.63;13.55;;;23.20;99.90;;;;;;5034228;28;20088;-88
2023/03/06 12:26:23;;;;;;;15.98;13.65;;;24.10;99.90;;;;;;5034093;28;20478;-88
2023/03/06 12:29:29;;;;;;;16.33;14.30;;;23.90;99.90;;;;;;5034049;28;20033;-88
2023/03/06 12:32:10;;;;;;;16.17;14.38;;;24.10;99.90;;;;;;5016880;28;20045;-88
2023/03/06 12:35:07;;;;;;;16.08;14.38;;;23.30;99.90;;;;;;5014265;28;20026;-88
2023/03/06 12:37:40;;;;;;;16.58;14.73;;;23.40;99.90;;;;;;5014084;28;20489;-89
2023/03/06 12:40:21;;;;;;;16.08;14.38;;;23.40;99.90;;;;;;5014225;28;20026;-88
2023/03/06 12:43:30;;;;;;;16.52;14.70;;;23.00;99.90;;;;;;4996375;28;20116;-88
2023/03/06 12:46:01;;;;;;;16.05;14.35;;;23.90;99.90;;;;;;4972196;28;20403;-88